sensor_id;sensor_type;location;lat;lon;timestamp;temperature;humidity
46091;DHT22;31826;53.572;10.170;2022-09-30T00:01:15;8.40;99.90
46091;DHT22;31826;53.572;10.170;2022-09-30T00:03:41;8.50;99.90
46091;DHT22;31826;53.572;10.170;2022-09-30T00:06:08;8.60;99.90
46091;DHT22;31826;53.572;10.170;2022-09-30T00:08:35;8.70;99.90
46091;DHT22;31826;53.572;10.170;2022-09-30T00:11:04;8.70;99.90
46091;DHT22;31826;53.572;10.170;2022-09-30T00:13:36;8.80;99.90
46091;DHT22;31826;53.572;10.170;2022-09-30T00:16:03;8.80;99.90
46091;DHT22;31826;53.572;10.170;2022-09-30T00:18:29;8.80;99.90
46091;DHT22;31826;53.572;10.170;2022-09-30T00:20:55;8.90;99.90
46091;DHT22;31826;53.572;10.170;2022-09-30T00:23:22;8.90;99.90
46091;DHT22;31826;53.572;10.170;2022-09-30T00:25:48;8.90;99.90
46091;DHT22;31826;53.572;10.170;2022-09-30T00:28:14;9.00;99.90
46091;DHT22;31826;53.572;10.170;2022-09-30T00:30:40;8.80;99.90
46091;DHT22;31826;53.572;10.170;2022-09-30T00:33:06;8.90;99.90
46091;DHT22;31826;53.572;10.170;2022-09-30T00:35:32;8.90;99.90
46091;DHT22;31826;53.572;10.170;2022-09-30T00:37:58;9.00;99.90
46091;DHT22;31826;53.572;10.170;2022-09-30T00:40:25;9.00;99.90
46091;DHT22;31826;53.572;10.170;2022-09-30T00:42:51;9.00;99.90
46091;DHT22;31826;53.572;10.170;2022-09-30T00:45:17;9.00;99.90
46091;DHT22;31826;53.572;10.170;2022-09-30T00:48:04;8.90;99.90
46091;DHT22;31826;53.572;10.170;2022-09-30T00:50:43;8.90;99.90
46091;DHT22;31826;53.572;10.170;2022-09-30T00:53:18;8.90;99.90
46091;DHT22;31826;53.572;10.170;2022-09-30T00:55:49;8.80;99.90
46091;DHT22;31826;53.572;10.170;2022-09-30T00:58:28;8.80;99.90
46091;DHT22;31826;53.572;10.170;2022-09-30T01:00:56;8.80;99.90
46091;DHT22;31826;53.572;10.170;2022-09-30T01:03:23;8.80;99.90
46091;DHT22;31826;53.572;10.170;2022-09-30T01:05:50;8.80;99.90
46091;DHT22;31826;53.572;10.170;2022-09-30T01:08:17;8.80;99.90
46091;DHT22;31826;53.572;10.170;2022-09-30T01:10:44;8.70;99.90
46091;DHT22;31826;53.572;10.170;2022-09-30T01:13:10;8.70;99.90
46091;DHT22;31826;53.572;10.170;2022-09-30T01:15:55;8.70;99.90
46091;DHT22;31826;53.572;10.170;2022-09-30T01:30:20;8.30;99.90
46091;DHT22;31826;53.572;10.170;2022-09-30T01:38:29;8.20;99.90
46091;DHT22;31826;53.572;10.170;2022-09-30T01:41:24;8.10;99.90
46091;DHT22;31826;53.572;10.170;2022-09-30T01:46:36;7.90;99.90
46091;DHT22;31826;53.572;10.170;2022-09-30T01:49:27;8.00;99.90
46091;DHT22;31826;53.572;10.170;2022-09-30T01:52:55;8.10;99.90
46091;DHT22;31826;53.572;10.170;2022-09-30T01:55:08;8.00;99.90
46091;DHT22;31826;53.572;10.170;2022-09-30T02:00:15;7.80;99.90
46091;DHT22;31826;53.572;10.170;2022-09-30T02:03:10;7.90;99.90
46091;DHT22;31826;53.572;10.170;2022-09-30T02:05:54;7.90;99.90
46091;DHT22;31826;53.572;10.170;2022-09-30T02:11:06;7.70;99.90
46091;DHT22;31826;53.572;10.170;2022-09-30T02:13:44;7.70;99.90
46091;DHT22;31826;53.572;10.170;2022-09-30T02:16:16;7.70;99.90
46091;DHT22;31826;53.572;10.170;2022-09-30T02:18:55;7.70;99.90
46091;DHT22;31826;53.572;10.170;2022-09-30T02:21:27;7.70;99.90
46091;DHT22;31826;53.572;10.170;2022-09-30T02:24:01;7.80;99.90
46091;DHT22;31826;53.572;10.170;2022-09-30T02:26:36;7.80;99.90
46091;DHT22;31826;53.572;10.170;2022-09-30T02:29:11;7.80;99.90
46091;DHT22;31826;53.572;10.170;2022-09-30T02:31:42;7.90;99.90
46091;DHT22;31826;53.572;10.170;2022-09-30T02:34:17;7.90;99.90
46091;DHT22;31826;53.572;10.170;2022-09-30T02:39:31;8.00;99.90
46091;DHT22;31826;53.572;10.170;2022-09-30T02:42:08;8.00;99.90
46091;DHT22;31826;53.572;10.170;2022-09-30T02:44:36;8.10;99.90
46091;DHT22;31826;53.572;10.170;2022-09-30T02:47:21;8.10;99.90
46091;DHT22;31826;53.572;10.170;2022-09-30T02:55:50;8.20;99.90
46091;DHT22;31826;53.572;10.170;2022-09-30T02:58:23;8.10;99.90
46091;DHT22;31826;53.572;10.170;2022-09-30T03:00:53;8.20;99.90
46091;DHT22;31826;53.572;10.170;2022-09-30T03:03:43;8.20;99.90
46091;DHT22;31826;53.572;10.170;2022-09-30T03:06:11;8.30;99.90
46091;DHT22;31826;53.572;10.170;2022-09-30T03:08:37;8.30;99.90
46091;DHT22;31826;53.572;10.170;2022-09-30T03:11:03;8.30;99.90
46091;DHT22;31826;53.572;10.170;2022-09-30T03:16:23;8.30;99.90
46091;DHT22;31826;53.572;10.170;2022-09-30T03:25:10;8.40;99.90
46091;DHT22;31826;53.572;10.170;2022-09-30T03:30:27;8.40;99.90
46091;DHT22;31826;53.572;10.170;2022-09-30T03:35:44;8.50;99.90
46091;DHT22;31826;53.572;10.170;2022-09-30T03:43:46;8.50;99.90
46091;DHT22;31826;53.572;10.170;2022-09-30T03:49:02;8.50;99.90
46091;DHT22;31826;53.572;10.170;2022-09-30T03:51:30;8.40;99.90
46091;DHT22;31826;53.572;10.170;2022-09-30T03:53:57;8.40;99.90
46091;DHT22;31826;53.572;10.170;2022-09-30T03:56:28;8.30;99.90
46091;DHT22;31826;53.572;10.170;2022-09-30T03:58:54;8.20;99.90
46091;DHT22;31826;53.572;10.170;2022-09-30T04:01:21;8.10;99.90
46091;DHT22;31826;53.572;10.170;2022-09-30T04:03:49;8.20;99.90
46091;DHT22;31826;53.572;10.170;2022-09-30T04:06:18;8.20;99.90
46091;DHT22;31826;53.572;10.170;2022-09-30T04:08:44;8.20;99.90
46091;DHT22;31826;53.572;10.170;2022-09-30T04:11:10;8.20;99.90
46091;DHT22;31826;53.572;10.170;2022-09-30T04:13:36;8.10;99.90
46091;DHT22;31826;53.572;10.170;2022-09-30T04:16:03;8.20;99.90
46091;DHT22;31826;53.572;10.170;2022-09-30T04:18:29;8.20;99.90
46091;DHT22;31826;53.572;10.170;2022-09-30T04:20:56;8.10;99.90
46091;DHT22;31826;53.572;10.170;2022-09-30T04:23:23;8.10;99.90
46091;DHT22;31826;53.572;10.170;2022-09-30T04:25:55;8.10;99.90
46091;DHT22;31826;53.572;10.170;2022-09-30T04:28:21;8.10;99.90
46091;DHT22;31826;53.572;10.170;2022-09-30T04:30:47;8.20;99.90
46091;DHT22;31826;53.572;10.170;2022-09-30T04:33:13;8.20;99.90
46091;DHT22;31826;53.572;10.170;2022-09-30T04:35:39;8.10;99.90
46091;DHT22;31826;53.572;10.170;2022-09-30T04:38:05;8.10;99.90
46091;DHT22;31826;53.572;10.170;2022-09-30T04:40:35;8.20;99.90
46091;DHT22;31826;53.572;10.170;2022-09-30T04:43:02;8.00;99.90
46091;DHT22;31826;53.572;10.170;2022-09-30T04:45:27;8.00;99.90
46091;DHT22;31826;53.572;10.170;2022-09-30T04:47:54;8.00;99.90
46091;DHT22;31826;53.572;10.170;2022-09-30T04:50:20;8.00;99.90
46091;DHT22;31826;53.572;10.170;2022-09-30T04:52:46;7.90;99.90
46091;DHT22;31826;53.572;10.170;2022-09-30T04:55:12;7.80;99.90
46091;DHT22;31826;53.572;10.170;2022-09-30T04:57:38;7.90;99.90
46091;DHT22;31826;53.572;10.170;2022-09-30T05:00:05;7.80;99.90
46091;DHT22;31826;53.572;10.170;2022-09-30T05:02:33;7.90;99.90
46091;DHT22;31826;53.572;10.170;2022-09-30T05:04:59;7.90;99.90
46091;DHT22;31826;53.572;10.170;2022-09-30T05:07:25;7.90;99.90
46091;DHT22;31826;53.572;10.170;2022-09-30T05:09:51;7.80;99.90
46091;DHT22;31826;53.572;10.170;2022-09-30T05:12:18;7.80;99.90
46091;DHT22;31826;53.572;10.170;2022-09-30T05:14:43;7.70;99.90
46091;DHT22;31826;53.572;10.170;2022-09-30T05:17:09;7.70;99.90
46091;DHT22;31826;53.572;10.170;2022-09-30T05:19:35;7.60;99.90
46091;DHT22;31826;53.572;10.170;2022-09-30T05:22:00;7.60;99.90
46091;DHT22;31826;53.572;10.170;2022-09-30T05:24:27;7.60;99.90
46091;DHT22;31826;53.572;10.170;2022-09-30T05:26:55;7.50;99.90
46091;DHT22;31826;53.572;10.170;2022-09-30T05:29:21;7.50;99.90
46091;DHT22;31826;53.572;10.170;2022-09-30T05:31:46;7.50;99.90
46091;DHT22;31826;53.572;10.170;2022-09-30T05:34:12;7.50;99.90
46091;DHT22;31826;53.572;10.170;2022-09-30T05:36:42;7.50;99.90
46091;DHT22;31826;53.572;10.170;2022-09-30T05:39:09;7.50;99.90
46091;DHT22;31826;53.572;10.170;2022-09-30T05:41:35;7.50;99.90
46091;DHT22;31826;53.572;10.170;2022-09-30T05:44:01;7.40;99.90
46091;DHT22;31826;53.572;10.170;2022-09-30T05:46:27;7.40;99.90
46091;DHT22;31826;53.572;10.170;2022-09-30T05:48:53;7.40;99.90
46091;DHT22;31826;53.572;10.170;2022-09-30T05:51:19;7.40;99.90
46091;DHT22;31826;53.572;10.170;2022-09-30T05:53:45;7.40;99.90
46091;DHT22;31826;53.572;10.170;2022-09-30T05:56:11;7.40;99.90
46091;DHT22;31826;53.572;10.170;2022-09-30T05:58:37;7.40;99.90
46091;DHT22;31826;53.572;10.170;2022-09-30T06:01:08;7.40;99.90
46091;DHT22;31826;53.572;10.170;2022-09-30T06:03:34;7.50;99.90
46091;DHT22;31826;53.572;10.170;2022-09-30T06:06:00;7.50;99.90
46091;DHT22;31826;53.572;10.170;2022-09-30T06:08:27;7.50;99.90
46091;DHT22;31826;53.572;10.170;2022-09-30T06:10:52;7.50;99.90
46091;DHT22;31826;53.572;10.170;2022-09-30T06:13:18;7.60;99.90
46091;DHT22;31826;53.572;10.170;2022-09-30T06:15:59;7.60;99.90
46091;DHT22;31826;53.572;10.170;2022-09-30T06:18:26;7.70;99.90
46091;DHT22;31826;53.572;10.170;2022-09-30T06:20:54;7.70;99.90
46091;DHT22;31826;53.572;10.170;2022-09-30T06:23:20;7.80;99.90
46091;DHT22;31826;53.572;10.170;2022-09-30T06:25:52;7.80;99.90
46091;DHT22;31826;53.572;10.170;2022-09-30T06:28:18;7.90;99.90
46091;DHT22;31826;53.572;10.170;2022-09-30T06:30:45;7.90;99.90
46091;DHT22;31826;53.572;10.170;2022-09-30T06:33:12;8.00;99.90
46091;DHT22;31826;53.572;10.170;2022-09-30T06:35:38;8.10;99.90
46091;DHT22;31826;53.572;10.170;2022-09-30T06:38:07;8.20;99.90
46091;DHT22;31826;53.572;10.170;2022-09-30T06:40:32;8.20;99.90
46091;DHT22;31826;53.572;10.170;2022-09-30T06:42:59;8.30;99.90
46091;DHT22;31826;53.572;10.170;2022-09-30T06:45:27;8.30;99.90
46091;DHT22;31826;53.572;10.170;2022-09-30T06:47:59;8.40;99.90
46091;DHT22;31826;53.572;10.170;2022-09-30T06:50:25;8.40;99.90
46091;DHT22;31826;53.572;10.170;2022-09-30T06:52:52;8.50;99.90
46091;DHT22;31826;53.572;10.170;2022-09-30T06:55:21;8.60;99.90
46091;DHT22;31826;53.572;10.170;2022-09-30T06:57:48;8.60;99.90
46091;DHT22;31826;53.572;10.170;2022-09-30T07:00:14;8.70;99.90
46091;DHT22;31826;53.572;10.170;2022-09-30T07:02:41;8.70;99.90
46091;DHT22;31826;53.572;10.170;2022-09-30T07:05:08;8.70;99.90
46091;DHT22;31826;53.572;10.170;2022-09-30T07:07:34;8.80;99.90
46091;DHT22;31826;53.572;10.170;2022-09-30T07:10:01;8.90;99.90
46091;DHT22;31826;53.572;10.170;2022-09-30T07:12:27;9.00;99.90
46091;DHT22;31826;53.572;10.170;2022-09-30T07:14:53;9.10;99.90
46091;DHT22;31826;53.572;10.170;2022-09-30T07:17:20;9.20;99.90
46091;DHT22;31826;53.572;10.170;2022-09-30T07:19:46;9.30;99.90
46091;DHT22;31826;53.572;10.170;2022-09-30T07:22:12;9.40;99.90
46091;DHT22;31826;53.572;10.170;2022-09-30T07:25:00;9.50;99.90
46091;DHT22;31826;53.572;10.170;2022-09-30T07:27:27;9.70;99.90
46091;DHT22;31826;53.572;10.170;2022-09-30T07:29:53;9.80;99.90
46091;DHT22;31826;53.572;10.170;2022-09-30T07:32:20;9.90;99.90
46091;DHT22;31826;53.572;10.170;2022-09-30T07:34:47;10.00;99.90
46091;DHT22;31826;53.572;10.170;2022-09-30T07:37:14;10.20;99.90
46091;DHT22;31826;53.572;10.170;2022-09-30T07:39:43;10.20;99.90
46091;DHT22;31826;53.572;10.170;2022-09-30T07:42:10;10.30;99.90
46091;DHT22;31826;53.572;10.170;2022-09-30T07:44:38;10.50;99.90
46091;DHT22;31826;53.572;10.170;2022-09-30T07:47:09;10.40;99.90
46091;DHT22;31826;53.572;10.170;2022-09-30T07:49:36;10.50;99.90
46091;DHT22;31826;53.572;10.170;2022-09-30T07:52:03;10.60;99.90
46091;DHT22;31826;53.572;10.170;2022-09-30T07:54:31;10.80;99.90
46091;DHT22;31826;53.572;10.170;2022-09-30T07:56:58;10.90;99.90
46091;DHT22;31826;53.572;10.170;2022-09-30T07:59:25;11.00;99.90
46091;DHT22;31826;53.572;10.170;2022-09-30T08:01:51;11.10;99.90
46091;DHT22;31826;53.572;10.170;2022-09-30T08:04:18;11.20;99.90
46091;DHT22;31826;53.572;10.170;2022-09-30T08:06:47;11.20;99.90
46091;DHT22;31826;53.572;10.170;2022-09-30T08:09:16;11.40;99.90
46091;DHT22;31826;53.572;10.170;2022-09-30T08:11:41;11.60;99.90
46091;DHT22;31826;53.572;10.170;2022-09-30T08:14:15;11.80;99.90
46091;DHT22;31826;53.572;10.170;2022-09-30T08:16:42;11.90;99.90
46091;DHT22;31826;53.572;10.170;2022-09-30T08:19:13;12.10;99.90
46091;DHT22;31826;53.572;10.170;2022-09-30T08:21:41;12.20;99.90
46091;DHT22;31826;53.572;10.170;2022-09-30T08:24:07;12.40;99.90
46091;DHT22;31826;53.572;10.170;2022-09-30T08:26:32;12.50;99.90
46091;DHT22;31826;53.572;10.170;2022-09-30T08:28:59;12.60;99.90
46091;DHT22;31826;53.572;10.170;2022-09-30T08:31:25;12.70;99.90
46091;DHT22;31826;53.572;10.170;2022-09-30T08:33:52;12.70;99.90
46091;DHT22;31826;53.572;10.170;2022-09-30T08:36:23;12.70;99.90
46091;DHT22;31826;53.572;10.170;2022-09-30T08:38:50;12.80;99.90
46091;DHT22;31826;53.572;10.170;2022-09-30T08:41:28;12.70;99.90
46091;DHT22;31826;53.572;10.170;2022-09-30T08:44:19;12.80;99.90
46091;DHT22;31826;53.572;10.170;2022-09-30T08:49:48;13.40;99.90
46091;DHT22;31826;53.572;10.170;2022-09-30T08:52:46;13.70;99.90
46091;DHT22;31826;53.572;10.170;2022-09-30T08:55:21;14.00;99.90
46091;DHT22;31826;53.572;10.170;2022-09-30T08:57:48;14.00;99.90
46091;DHT22;31826;53.572;10.170;2022-09-30T09:00:16;14.40;99.90
46091;DHT22;31826;53.572;10.170;2022-09-30T09:02:54;14.40;99.90
46091;DHT22;31826;53.572;10.170;2022-09-30T09:08:15;14.70;99.90
46091;DHT22;31826;53.572;10.170;2022-09-30T09:11:14;14.80;99.90
46091;DHT22;31826;53.572;10.170;2022-09-30T09:13:45;14.90;99.90
46091;DHT22;31826;53.572;10.170;2022-09-30T09:16:29;14.90;99.90
46091;DHT22;31826;53.572;10.170;2022-09-30T09:19:10;14.90;99.90
46091;DHT22;31826;53.572;10.170;2022-09-30T09:21:51;14.90;99.90
46091;DHT22;31826;53.572;10.170;2022-09-30T09:24:23;15.30;99.90
46091;DHT22;31826;53.572;10.170;2022-09-30T09:26:52;15.50;99.90
46091;DHT22;31826;53.572;10.170;2022-09-30T09:29:24;15.80;99.90
46091;DHT22;31826;53.572;10.170;2022-09-30T09:31:53;16.00;99.90
46091;DHT22;31826;53.572;10.170;2022-09-30T09:34:22;16.10;99.90
46091;DHT22;31826;53.572;10.170;2022-09-30T09:45:17;16.40;99.90
46091;DHT22;31826;53.572;10.170;2022-09-30T09:47:52;16.40;99.90
46091;DHT22;31826;53.572;10.170;2022-09-30T09:50:25;16.40;99.90
46091;DHT22;31826;53.572;10.170;2022-09-30T09:53:04;16.40;99.90
46091;DHT22;31826;53.572;10.170;2022-09-30T09:55:34;16.20;99.90
46091;DHT22;31826;53.572;10.170;2022-09-30T09:58:10;16.30;99.90
46091;DHT22;31826;53.572;10.170;2022-09-30T10:00:39;16.10;99.90
46091;DHT22;31826;53.572;10.170;2022-09-30T10:03:24;16.10;99.90
46091;DHT22;31826;53.572;10.170;2022-09-30T10:08:27;15.90;99.90
46091;DHT22;31826;53.572;10.170;2022-09-30T10:10:58;15.90;99.90
46091;DHT22;31826;53.572;10.170;2022-09-30T10:13:40;15.70;99.90
46091;DHT22;31826;53.572;10.170;2022-09-30T10:16:34;15.50;99.90
46091;DHT22;31826;53.572;10.170;2022-09-30T10:19:02;15.30;99.90
46091;DHT22;31826;53.572;10.170;2022-09-30T10:21:29;15.20;99.90
46091;DHT22;31826;53.572;10.170;2022-09-30T10:23:55;15.20;99.90
46091;DHT22;31826;53.572;10.170;2022-09-30T10:26:26;15.20;99.90
46091;DHT22;31826;53.572;10.170;2022-09-30T10:28:54;15.10;99.90
46091;DHT22;31826;53.572;10.170;2022-09-30T10:36:42;15.20;99.90
46091;DHT22;31826;53.572;10.170;2022-09-30T10:39:30;15.10;99.90
46091;DHT22;31826;53.572;10.170;2022-09-30T10:42:16;15.00;99.90
46091;DHT22;31826;53.572;10.170;2022-09-30T10:44:48;15.00;99.90
46091;DHT22;31826;53.572;10.170;2022-09-30T10:47:19;15.00;99.90
46091;DHT22;31826;53.572;10.170;2022-09-30T10:49:54;15.30;99.90
46091;DHT22;31826;53.572;10.170;2022-09-30T10:52:26;15.40;99.90
46091;DHT22;31826;53.572;10.170;2022-09-30T10:54:54;15.60;99.90
46091;DHT22;31826;53.572;10.170;2022-09-30T10:57:24;15.80;99.90
46091;DHT22;31826;53.572;10.170;2022-09-30T11:00:02;16.00;99.90
46091;DHT22;31826;53.572;10.170;2022-09-30T11:02:33;15.90;99.90
46091;DHT22;31826;53.572;10.170;2022-09-30T11:05:17;15.70;99.90
46091;DHT22;31826;53.572;10.170;2022-09-30T11:08:04;16.10;99.90
46091;DHT22;31826;53.572;10.170;2022-09-30T11:10:58;17.10;99.90
46091;DHT22;31826;53.572;10.170;2022-09-30T11:19:27;18.20;99.90
46091;DHT22;31826;53.572;10.170;2022-09-30T11:22:18;17.90;99.90
46091;DHT22;31826;53.572;10.170;2022-09-30T11:24:49;17.70;99.90
46091;DHT22;31826;53.572;10.170;2022-09-30T11:41:17;15.80;99.90
46091;DHT22;31826;53.572;10.170;2022-09-30T11:46:37;17.80;99.90
46091;DHT22;31826;53.572;10.170;2022-09-30T11:57:52;17.60;99.90
46091;DHT22;31826;53.572;10.170;2022-09-30T12:00:22;18.40;99.60
46091;DHT22;31826;53.572;10.170;2022-09-30T12:02:58;19.10;97.50
46091;DHT22;31826;53.572;10.170;2022-09-30T12:05:46;19.20;95.30
46091;DHT22;31826;53.572;10.170;2022-09-30T12:11:03;18.70;94.90
46091;DHT22;31826;53.572;10.170;2022-09-30T12:13:36;18.80;94.90
46091;DHT22;31826;53.572;10.170;2022-09-30T12:16:09;19.20;95.50
46091;DHT22;31826;53.572;10.170;2022-09-30T12:18:40;19.70;95.40
46091;DHT22;31826;53.572;10.170;2022-09-30T12:21:31;19.80;93.70
46091;DHT22;31826;53.572;10.170;2022-09-30T12:24:08;20.40;93.50
46091;DHT22;31826;53.572;10.170;2022-09-30T12:26:39;19.60;91.80
46091;DHT22;31826;53.572;10.170;2022-09-30T12:29:14;19.40;93.30
46091;DHT22;31826;53.572;10.170;2022-09-30T12:32:27;19.60;91.90
46091;DHT22;31826;53.572;10.170;2022-09-30T12:44:01;19.00;95.00
46091;DHT22;31826;53.572;10.170;2022-09-30T12:49:26;20.30;92.30
46091;DHT22;31826;53.572;10.170;2022-09-30T12:52:05;20.60;90.30
46091;DHT22;31826;53.572;10.170;2022-09-30T12:54:39;20.30;90.80
46091;DHT22;31826;53.572;10.170;2022-09-30T12:57:07;20.10;90.40
46091;DHT22;31826;53.572;10.170;2022-09-30T12:59:36;20.10;91.50
46091;DHT22;31826;53.572;10.170;2022-09-30T13:02:04;20.30;88.70
46091;DHT22;31826;53.572;10.170;2022-09-30T13:04:35;19.70;90.00
46091;DHT22;31826;53.572;10.170;2022-09-30T13:14:41;19.40;90.60
46091;DHT22;31826;53.572;10.170;2022-09-30T13:19:47;19.30;90.10
46091;DHT22;31826;53.572;10.170;2022-09-30T13:27:50;18.20;91.00
46091;DHT22;31826;53.572;10.170;2022-09-30T13:32:45;18.50;90.30
46091;DHT22;31826;53.572;10.170;2022-09-30T13:45:54;17.90;92.30
46091;DHT22;31826;53.572;10.170;2022-09-30T13:48:33;17.40;93.60
46091;DHT22;31826;53.572;10.170;2022-09-30T13:51:05;17.30;94.00
46091;DHT22;31826;53.572;10.170;2022-09-30T13:53:41;17.20;94.40
46091;DHT22;31826;53.572;10.170;2022-09-30T13:56:19;17.40;93.30
46091;DHT22;31826;53.572;10.170;2022-09-30T14:10:25;16.80;95.20
46091;DHT22;31826;53.572;10.170;2022-09-30T14:21:18;17.00;93.00
46091;DHT22;31826;53.572;10.170;2022-09-30T14:23:54;16.60;94.70
46091;DHT22;31826;53.572;10.170;2022-09-30T14:31:56;16.10;96.10
46091;DHT22;31826;53.572;10.170;2022-09-30T14:34:26;16.10;95.90
46091;DHT22;31826;53.572;10.170;2022-09-30T14:36:54;16.00;96.70
46091;DHT22;31826;53.572;10.170;2022-09-30T14:39:25;16.00;97.20
46091;DHT22;31826;53.572;10.170;2022-09-30T14:41:58;15.80;96.80
46091;DHT22;31826;53.572;10.170;2022-09-30T14:44:32;15.80;97.10
46091;DHT22;31826;53.572;10.170;2022-09-30T14:47:02;15.80;96.60
46091;DHT22;31826;53.572;10.170;2022-09-30T14:49:34;15.70;97.40
46091;DHT22;31826;53.572;10.170;2022-09-30T14:52:03;15.70;98.40
46091;DHT22;31826;53.572;10.170;2022-09-30T14:54:30;15.70;97.30
46091;DHT22;31826;53.572;10.170;2022-09-30T14:56:59;15.70;97.60
46091;DHT22;31826;53.572;10.170;2022-09-30T14:59:28;15.80;97.00
46091;DHT22;31826;53.572;10.170;2022-09-30T15:02:01;15.80;97.20
46091;DHT22;31826;53.572;10.170;2022-09-30T15:04:36;15.70;97.50
46091;DHT22;31826;53.572;10.170;2022-09-30T15:07:04;15.70;98.00
46091;DHT22;31826;53.572;10.170;2022-09-30T15:09:39;15.70;98.20
46091;DHT22;31826;53.572;10.170;2022-09-30T15:12:18;15.70;97.40
46091;DHT22;31826;53.572;10.170;2022-09-30T15:17:18;15.70;98.40
46091;DHT22;31826;53.572;10.170;2022-09-30T15:19:44;15.70;99.10
46091;DHT22;31826;53.572;10.170;2022-09-30T15:22:11;15.70;99.10
46091;DHT22;31826;53.572;10.170;2022-09-30T15:24:38;15.80;99.40
46091;DHT22;31826;53.572;10.170;2022-09-30T15:27:05;15.70;98.30
46091;DHT22;31826;53.572;10.170;2022-09-30T15:29:35;15.70;98.80
46091;DHT22;31826;53.572;10.170;2022-09-30T15:32:13;15.60;99.00
46091;DHT22;31826;53.572;10.170;2022-09-30T15:34:40;15.50;99.60
46091;DHT22;31826;53.572;10.170;2022-09-30T15:37:18;15.40;99.10
46091;DHT22;31826;53.572;10.170;2022-09-30T15:39:45;15.40;98.80
46091;DHT22;31826;53.572;10.170;2022-09-30T15:42:55;15.30;99.10
46091;DHT22;31826;53.572;10.170;2022-09-30T15:45:38;15.20;99.00
46091;DHT22;31826;53.572;10.170;2022-09-30T15:48:31;15.10;99.30
46091;DHT22;31826;53.572;10.170;2022-09-30T15:50:59;15.10;99.40
46091;DHT22;31826;53.572;10.170;2022-09-30T15:56:24;14.90;99.80
46091;DHT22;31826;53.572;10.170;2022-09-30T16:01:22;14.80;99.90
46091;DHT22;31826;53.572;10.170;2022-09-30T16:03:55;14.80;99.90
46091;DHT22;31826;53.572;10.170;2022-09-30T16:06:41;14.80;99.90
46091;DHT22;31826;53.572;10.170;2022-09-30T16:14:30;14.60;99.90
46091;DHT22;31826;53.572;10.170;2022-09-30T16:17:01;14.60;99.90
46091;DHT22;31826;53.572;10.170;2022-09-30T16:19:28;14.50;99.90
46091;DHT22;31826;53.572;10.170;2022-09-30T16:21:55;14.50;99.90
46091;DHT22;31826;53.572;10.170;2022-09-30T16:27:21;14.30;99.90
46091;DHT22;31826;53.572;10.170;2022-09-30T16:29:47;14.20;99.90
46091;DHT22;31826;53.572;10.170;2022-09-30T16:32:13;14.10;99.90
46091;DHT22;31826;53.572;10.170;2022-09-30T16:34:39;14.10;99.90
46091;DHT22;31826;53.572;10.170;2022-09-30T16:37:13;14.00;99.90
46091;DHT22;31826;53.572;10.170;2022-09-30T16:39:41;13.90;99.90
46091;DHT22;31826;53.572;10.170;2022-09-30T16:42:14;13.90;99.90
46091;DHT22;31826;53.572;10.170;2022-09-30T16:44:41;13.80;99.90
46091;DHT22;31826;53.572;10.170;2022-09-30T16:47:15;13.80;99.90
46091;DHT22;31826;53.572;10.170;2022-09-30T16:49:42;13.70;99.90
46091;DHT22;31826;53.572;10.170;2022-09-30T16:52:10;13.70;99.90
46091;DHT22;31826;53.572;10.170;2022-09-30T16:54:36;13.60;99.90
46091;DHT22;31826;53.572;10.170;2022-09-30T16:57:02;13.40;99.90
46091;DHT22;31826;53.572;10.170;2022-09-30T16:59:28;13.10;99.90
46091;DHT22;31826;53.572;10.170;2022-09-30T17:01:57;13.00;99.90
46091;DHT22;31826;53.572;10.170;2022-09-30T17:04:25;12.80;99.90
46091;DHT22;31826;53.572;10.170;2022-09-30T17:06:51;12.80;99.90
46091;DHT22;31826;53.572;10.170;2022-09-30T17:09:18;12.70;99.90
46091;DHT22;31826;53.572;10.170;2022-09-30T17:11:44;12.70;99.90
46091;DHT22;31826;53.572;10.170;2022-09-30T17:14:10;12.60;99.90
46091;DHT22;31826;53.572;10.170;2022-09-30T17:16:36;12.60;99.90
46091;DHT22;31826;53.572;10.170;2022-09-30T17:19:02;12.60;99.90
46091;DHT22;31826;53.572;10.170;2022-09-30T17:21:29;12.40;99.90
46091;DHT22;31826;53.572;10.170;2022-09-30T17:23:55;12.40;99.90
46091;DHT22;31826;53.572;10.170;2022-09-30T17:26:21;12.40;99.90
46091;DHT22;31826;53.572;10.170;2022-09-30T17:28:46;12.40;99.90
46091;DHT22;31826;53.572;10.170;2022-09-30T17:31:12;12.30;99.90
46091;DHT22;31826;53.572;10.170;2022-09-30T17:33:40;12.20;99.90
46091;DHT22;31826;53.572;10.170;2022-09-30T17:36:08;12.10;99.90
46091;DHT22;31826;53.572;10.170;2022-09-30T17:38:35;12.00;99.90
46091;DHT22;31826;53.572;10.170;2022-09-30T17:41:02;12.00;99.90
46091;DHT22;31826;53.572;10.170;2022-09-30T17:43:47;11.70;99.90
46091;DHT22;31826;53.572;10.170;2022-09-30T17:46:14;11.60;99.90
46091;DHT22;31826;53.572;10.170;2022-09-30T17:48:47;11.60;99.90
46091;DHT22;31826;53.572;10.170;2022-09-30T17:51:14;11.60;99.90
46091;DHT22;31826;53.572;10.170;2022-09-30T17:53:41;11.50;99.90
46091;DHT22;31826;53.572;10.170;2022-09-30T17:56:17;11.40;99.90
46091;DHT22;31826;53.572;10.170;2022-09-30T17:58:44;11.40;99.90
46091;DHT22;31826;53.572;10.170;2022-09-30T18:01:13;11.30;99.90
46091;DHT22;31826;53.572;10.170;2022-09-30T18:03:39;11.30;99.90
46091;DHT22;31826;53.572;10.170;2022-09-30T18:06:05;11.20;99.90
46091;DHT22;31826;53.572;10.170;2022-09-30T18:08:31;11.30;99.90
46091;DHT22;31826;53.572;10.170;2022-09-30T18:10:57;11.30;99.90
46091;DHT22;31826;53.572;10.170;2022-09-30T18:13:27;11.20;99.90
46091;DHT22;31826;53.572;10.170;2022-09-30T18:15:56;11.20;99.90
46091;DHT22;31826;53.572;10.170;2022-09-30T18:18:27;11.20;99.90
46091;DHT22;31826;53.572;10.170;2022-09-30T18:20:53;11.10;99.90
46091;DHT22;31826;53.572;10.170;2022-09-30T18:23:19;11.10;99.90
46091;DHT22;31826;53.572;10.170;2022-09-30T18:25:46;11.10;99.90
46091;DHT22;31826;53.572;10.170;2022-09-30T18:28:14;11.10;99.90
46091;DHT22;31826;53.572;10.170;2022-09-30T18:30:40;11.10;99.90
46091;DHT22;31826;53.572;10.170;2022-09-30T18:33:06;11.10;99.90
46091;DHT22;31826;53.572;10.170;2022-09-30T18:35:33;11.10;99.90
46091;DHT22;31826;53.572;10.170;2022-09-30T18:38:00;11.10;99.90
46091;DHT22;31826;53.572;10.170;2022-09-30T18:40:27;11.10;99.90
46091;DHT22;31826;53.572;10.170;2022-09-30T18:42:57;11.20;99.90
46091;DHT22;31826;53.572;10.170;2022-09-30T18:45:24;11.20;99.90
46091;DHT22;31826;53.572;10.170;2022-09-30T18:47:54;11.10;99.90
46091;DHT22;31826;53.572;10.170;2022-09-30T18:50:21;11.10;99.90
46091;DHT22;31826;53.572;10.170;2022-09-30T18:52:49;11.10;99.90
46091;DHT22;31826;53.572;10.170;2022-09-30T18:55:16;11.00;99.90
46091;DHT22;31826;53.572;10.170;2022-09-30T18:57:42;11.00;99.90
46091;DHT22;31826;53.572;10.170;2022-09-30T19:00:09;11.00;99.90